sensor_id;sensor_type;location;lat;lon;timestamp;temperature;humidity
18456;DHT22;9357;49.900;8.208;2023-02-28T00:00:15;0.10;99.90
18456;DHT22;9357;49.900;8.208;2023-02-28T00:01:48;0.10;99.90
18456;DHT22;9357;49.900;8.208;2023-02-28T00:03:21;0.00;99.90
18456;DHT22;9357;49.900;8.208;2023-02-28T00:04:54;0.00;99.90
18456;DHT22;9357;49.900;8.208;2023-02-28T00:06:32;0.00;99.90
18456;DHT22;9357;49.900;8.208;2023-02-28T00:08:05;0.10;99.90
18456;DHT22;9357;49.900;8.208;2023-02-28T00:09:37;0.00;99.90
18456;DHT22;9357;49.900;8.208;2023-02-28T00:11:12;0.00;99.90
18456;DHT22;9357;49.900;8.208;2023-02-28T00:12:46;-0.10;99.90
18456;DHT22;9357;49.900;8.208;2023-02-28T00:14:19;-0.10;99.90
18456;DHT22;9357;49.900;8.208;2023-02-28T00:16:03;-0.10;99.90
18456;DHT22;9357;49.900;8.208;2023-02-28T00:17:37;-0.10;99.90
18456;DHT22;9357;49.900;8.208;2023-02-28T00:19:09;-0.10;99.90
18456;DHT22;9357;49.900;8.208;2023-02-28T00:20:45;-0.10;99.90
18456;DHT22;9357;49.900;8.208;2023-02-28T00:22:19;-0.20;99.90
18456;DHT22;9357;49.900;8.208;2023-02-28T00:23:52;-0.20;99.90
18456;DHT22;9357;49.900;8.208;2023-02-28T00:25:25;-0.20;99.90
18456;DHT22;9357;49.900;8.208;2023-02-28T00:26:58;-0.10;99.90
18456;DHT22;9357;49.900;8.208;2023-02-28T00:28:31;-0.10;99.90
18456;DHT22;9357;49.900;8.208;2023-02-28T00:30:05;-0.10;99.90
18456;DHT22;9357;49.900;8.208;2023-02-28T00:31:38;-0.20;99.90
18456;DHT22;9357;49.900;8.208;2023-02-28T00:33:11;-0.10;99.90
18456;DHT22;9357;49.900;8.208;2023-02-28T00:34:44;-0.10;99.90
18456;DHT22;9357;49.900;8.208;2023-02-28T00:36:17;-0.30;99.90
18456;DHT22;9357;49.900;8.208;2023-02-28T00:37:49;-0.10;99.90
18456;DHT22;9357;49.900;8.208;2023-02-28T00:39:22;-0.10;99.90
18456;DHT22;9357;49.900;8.208;2023-02-28T00:40:54;-0.20;99.90
18456;DHT22;9357;49.900;8.208;2023-02-28T00:42:27;-0.10;99.90
18456;DHT22;9357;49.900;8.208;2023-02-28T00:44:01;-0.20;99.90
18456;DHT22;9357;49.900;8.208;2023-02-28T00:45:33;-0.20;99.90
18456;DHT22;9357;49.900;8.208;2023-02-28T00:47:06;-0.20;99.90
18456;DHT22;9357;49.900;8.208;2023-02-28T00:48:39;-0.20;99.90
18456;DHT22;9357;49.900;8.208;2023-02-28T00:50:12;-0.20;99.90
18456;DHT22;9357;49.900;8.208;2023-02-28T00:51:44;-0.10;99.90
18456;DHT22;9357;49.900;8.208;2023-02-28T00:53:17;-0.20;99.90
18456;DHT22;9357;49.900;8.208;2023-02-28T00:54:50;-0.20;99.90
18456;DHT22;9357;49.900;8.208;2023-02-28T00:56:23;-0.20;99.90
18456;DHT22;9357;49.900;8.208;2023-02-28T00:57:55;-0.20;99.90
18456;DHT22;9357;49.900;8.208;2023-02-28T00:59:29;-0.20;99.90
18456;DHT22;9357;49.900;8.208;2023-02-28T01:01:02;-0.20;99.90
18456;DHT22;9357;49.900;8.208;2023-02-28T01:02:35;-0.20;99.90
18456;DHT22;9357;49.900;8.208;2023-02-28T01:04:07;-0.20;99.90
18456;DHT22;9357;49.900;8.208;2023-02-28T01:05:40;-0.20;99.90
18456;DHT22;9357;49.900;8.208;2023-02-28T01:07:13;-0.20;99.90
18456;DHT22;9357;49.900;8.208;2023-02-28T01:08:46;-0.20;99.90
18456;DHT22;9357;49.900;8.208;2023-02-28T01:10:19;-0.20;99.90
18456;DHT22;9357;49.900;8.208;2023-02-28T01:11:52;-0.20;99.90
18456;DHT22;9357;49.900;8.208;2023-02-28T01:13:24;-0.20;99.90
18456;DHT22;9357;49.900;8.208;2023-02-28T01:14:59;-0.20;99.90
18456;DHT22;9357;49.900;8.208;2023-02-28T01:16:31;-0.20;99.90
18456;DHT22;9357;49.900;8.208;2023-02-28T01:18:04;-0.20;99.90
18456;DHT22;9357;49.900;8.208;2023-02-28T01:19:37;-0.30;99.90
18456;DHT22;9357;49.900;8.208;2023-02-28T01:21:12;-0.20;99.90
18456;DHT22;9357;49.900;8.208;2023-02-28T01:22:44;-0.20;99.90
18456;DHT22;9357;49.900;8.208;2023-02-28T01:24:18;-0.30;99.90
18456;DHT22;9357;49.900;8.208;2023-02-28T01:25:50;-0.20;99.90
18456;DHT22;9357;49.900;8.208;2023-02-28T01:27:23;-0.20;99.90
18456;DHT22;9357;49.900;8.208;2023-02-28T01:28:57;-0.20;99.90
18456;DHT22;9357;49.900;8.208;2023-02-28T01:30:31;-0.20;99.90
18456;DHT22;9357;49.900;8.208;2023-02-28T01:32:04;-0.20;99.90
18456;DHT22;9357;49.900;8.208;2023-02-28T01:33:37;-0.20;99.90
18456;DHT22;9357;49.900;8.208;2023-02-28T01:35:10;-0.20;99.90
18456;DHT22;9357;49.900;8.208;2023-02-28T01:36:42;-0.20;99.90
18456;DHT22;9357;49.900;8.208;2023-02-28T01:38:15;-0.20;99.90
18456;DHT22;9357;49.900;8.208;2023-02-28T01:39:53;-0.20;99.90
18456;DHT22;9357;49.900;8.208;2023-02-28T01:41:28;-0.30;99.90
18456;DHT22;9357;49.900;8.208;2023-02-28T01:43:01;-0.20;99.90
18456;DHT22;9357;49.900;8.208;2023-02-28T01:44:57;-0.20;99.90
18456;DHT22;9357;49.900;8.208;2023-02-28T01:46:33;-0.30;99.90
18456;DHT22;9357;49.900;8.208;2023-02-28T01:48:08;-0.30;99.90
18456;DHT22;9357;49.900;8.208;2023-02-28T01:49:41;-0.30;99.90
18456;DHT22;9357;49.900;8.208;2023-02-28T01:51:16;-0.30;99.90
18456;DHT22;9357;49.900;8.208;2023-02-28T01:52:51;-0.30;99.90
18456;DHT22;9357;49.900;8.208;2023-02-28T01:54:28;-0.40;99.90
18456;DHT22;9357;49.900;8.208;2023-02-28T01:56:04;-0.40;99.90
18456;DHT22;9357;49.900;8.208;2023-02-28T01:57:40;-0.40;99.90
18456;DHT22;9357;49.900;8.208;2023-02-28T01:59:19;-0.40;99.90
18456;DHT22;9357;49.900;8.208;2023-02-28T02:00:52;-0.40;99.90
18456;DHT22;9357;49.900;8.208;2023-02-28T02:02:27;-0.50;99.90
18456;DHT22;9357;49.900;8.208;2023-02-28T02:04:02;-0.50;99.90
18456;DHT22;9357;49.900;8.208;2023-02-28T02:05:38;-0.50;99.90
18456;DHT22;9357;49.900;8.208;2023-02-28T02:07:12;-0.50;99.90
18456;DHT22;9357;49.900;8.208;2023-02-28T02:08:44;-0.50;99.90
18456;DHT22;9357;49.900;8.208;2023-02-28T02:10:19;-0.60;99.90
18456;DHT22;9357;49.900;8.208;2023-02-28T02:11:55;-0.60;99.90
18456;DHT22;9357;49.900;8.208;2023-02-28T02:13:38;-0.60;99.90
18456;DHT22;9357;49.900;8.208;2023-02-28T02:15:16;-0.60;99.90
18456;DHT22;9357;49.900;8.208;2023-02-28T02:17:06;-0.60;99.90
18456;DHT22;9357;49.900;8.208;2023-02-28T02:18:47;-0.70;99.90
18456;DHT22;9357;49.900;8.208;2023-02-28T02:20:47;-0.70;99.90
18456;DHT22;9357;49.900;8.208;2023-02-28T02:22:46;-0.70;99.90
18456;DHT22;9357;49.900;8.208;2023-02-28T02:24:58;-0.80;99.90
18456;DHT22;9357;49.900;8.208;2023-02-28T02:26:55;-0.80;99.90
18456;DHT22;9357;49.900;8.208;2023-02-28T02:28:56;-0.80;99.90
18456;DHT22;9357;49.900;8.208;2023-02-28T02:30:51;-0.90;99.90
18456;DHT22;9357;49.900;8.208;2023-02-28T02:32:49;-0.90;99.90
18456;DHT22;9357;49.900;8.208;2023-02-28T02:36:23;-1.00;99.90
18456;DHT22;9357;49.900;8.208;2023-02-28T02:38:05;-1.00;99.90
18456;DHT22;9357;49.900;8.208;2023-02-28T02:39:45;-1.00;99.90
18456;DHT22;9357;49.900;8.208;2023-02-28T02:41:26;-1.00;99.90
18456;DHT22;9357;49.900;8.208;2023-02-28T02:43:03;-1.00;99.90
18456;DHT22;9357;49.900;8.208;2023-02-28T02:50:33;-1.10;99.90
18456;DHT22;9357;49.900;8.208;2023-02-28T02:52:10;-1.10;99.90
18456;DHT22;9357;49.900;8.208;2023-02-28T02:53:48;-1.10;99.90
18456;DHT22;9357;49.900;8.208;2023-02-28T02:55:23;-1.20;99.90
18456;DHT22;9357;49.900;8.208;2023-02-28T02:57:01;-1.20;99.90
18456;DHT22;9357;49.900;8.208;2023-02-28T02:58:39;-1.30;99.90
18456;DHT22;9357;49.900;8.208;2023-02-28T03:00:15;-1.20;99.90
18456;DHT22;9357;49.900;8.208;2023-02-28T03:01:51;-1.20;99.90
18456;DHT22;9357;49.900;8.208;2023-02-28T03:03:25;-1.30;99.90
18456;DHT22;9357;49.900;8.208;2023-02-28T03:05:04;-1.30;99.90
18456;DHT22;9357;49.900;8.208;2023-02-28T03:06:40;-1.30;99.90
18456;DHT22;9357;49.900;8.208;2023-02-28T03:08:12;-1.30;99.90
18456;DHT22;9357;49.900;8.208;2023-02-28T03:09:50;-1.30;99.90
18456;DHT22;9357;49.900;8.208;2023-02-28T03:11:23;-1.40;99.90
18456;DHT22;9357;49.900;8.208;2023-02-28T03:13:03;-1.30;99.90
18456;DHT22;9357;49.900;8.208;2023-02-28T03:14:48;-1.40;99.90
18456;DHT22;9357;49.900;8.208;2023-02-28T03:16:45;-1.40;99.90
18456;DHT22;9357;49.900;8.208;2023-02-28T03:18:25;-1.40;99.90
18456;DHT22;9357;49.900;8.208;2023-02-28T03:20:15;-1.40;99.90
18456;DHT22;9357;49.900;8.208;2023-02-28T03:21:59;-1.40;99.90
18456;DHT22;9357;49.900;8.208;2023-02-28T03:23:38;-1.40;99.90
18456;DHT22;9357;49.900;8.208;2023-02-28T03:25:17;-1.40;99.90
18456;DHT22;9357;49.900;8.208;2023-02-28T03:26:55;-1.40;99.90
18456;DHT22;9357;49.900;8.208;2023-02-28T03:28:37;-1.40;99.90
18456;DHT22;9357;49.900;8.208;2023-02-28T03:30:16;-1.40;99.90
18456;DHT22;9357;49.900;8.208;2023-02-28T03:31:53;-1.40;99.90
18456;DHT22;9357;49.900;8.208;2023-02-28T03:33:29;-1.40;99.90
18456;DHT22;9357;49.900;8.208;2023-02-28T03:35:07;-1.40;99.90
18456;DHT22;9357;49.900;8.208;2023-02-28T03:36:45;-1.40;99.90
18456;DHT22;9357;49.900;8.208;2023-02-28T03:38:24;-1.50;99.90
18456;DHT22;9357;49.900;8.208;2023-02-28T03:40:01;-1.50;99.90
18456;DHT22;9357;49.900;8.208;2023-02-28T03:41:38;-1.50;99.90
18456;DHT22;9357;49.900;8.208;2023-02-28T03:43:14;-1.50;99.90
18456;DHT22;9357;49.900;8.208;2023-02-28T03:44:52;-1.50;99.90
18456;DHT22;9357;49.900;8.208;2023-02-28T03:46:30;-1.50;99.90
18456;DHT22;9357;49.900;8.208;2023-02-28T03:48:09;-1.50;99.90
18456;DHT22;9357;49.900;8.208;2023-02-28T03:49:47;-1.50;99.90
18456;DHT22;9357;49.900;8.208;2023-02-28T03:51:22;-1.50;99.90
18456;DHT22;9357;49.900;8.208;2023-02-28T03:53:00;-1.50;99.90
18456;DHT22;9357;49.900;8.208;2023-02-28T03:54:42;-1.50;99.90
18456;DHT22;9357;49.900;8.208;2023-02-28T03:56:18;-1.50;99.90
18456;DHT22;9357;49.900;8.208;2023-02-28T03:57:57;-1.50;99.90
18456;DHT22;9357;49.900;8.208;2023-02-28T03:59:35;-1.50;99.90
18456;DHT22;9357;49.900;8.208;2023-02-28T04:01:12;-1.50;99.90
18456;DHT22;9357;49.900;8.208;2023-02-28T04:02:46;-1.50;99.90
18456;DHT22;9357;49.900;8.208;2023-02-28T04:04:24;-1.50;99.90
18456;DHT22;9357;49.900;8.208;2023-02-28T04:05:57;-1.50;99.90
18456;DHT22;9357;49.900;8.208;2023-02-28T04:07:30;-1.50;99.90
18456;DHT22;9357;49.900;8.208;2023-02-28T04:09:04;-1.50;99.90
18456;DHT22;9357;49.900;8.208;2023-02-28T04:10:39;-1.50;99.90
18456;DHT22;9357;49.900;8.208;2023-02-28T04:12:10;-1.50;99.90
18456;DHT22;9357;49.900;8.208;2023-02-28T04:13:43;-1.60;99.90
18456;DHT22;9357;49.900;8.208;2023-02-28T04:15:18;-1.60;99.90
18456;DHT22;9357;49.900;8.208;2023-02-28T04:16:54;-1.60;99.90
18456;DHT22;9357;49.900;8.208;2023-02-28T04:18:26;-1.60;99.90
18456;DHT22;9357;49.900;8.208;2023-02-28T04:19:59;-1.50;99.90
18456;DHT22;9357;49.900;8.208;2023-02-28T04:21:34;-1.50;99.90
18456;DHT22;9357;49.900;8.208;2023-02-28T04:23:07;-1.60;99.90
18456;DHT22;9357;49.900;8.208;2023-02-28T04:24:40;-1.60;99.90
18456;DHT22;9357;49.900;8.208;2023-02-28T04:26:15;-1.60;99.90
18456;DHT22;9357;49.900;8.208;2023-02-28T04:27:47;-1.60;99.90
18456;DHT22;9357;49.900;8.208;2023-02-28T04:29:22;-1.60;99.90
18456;DHT22;9357;49.900;8.208;2023-02-28T04:30:55;-1.60;99.90
18456;DHT22;9357;49.900;8.208;2023-02-28T04:32:28;-1.60;99.90
18456;DHT22;9357;49.900;8.208;2023-02-28T04:34:01;-1.60;99.90
18456;DHT22;9357;49.900;8.208;2023-02-28T04:35:34;-1.60;99.90
18456;DHT22;9357;49.900;8.208;2023-02-28T04:37:07;-1.60;99.90
18456;DHT22;9357;49.900;8.208;2023-02-28T04:38:45;-1.60;99.90
18456;DHT22;9357;49.900;8.208;2023-02-28T04:40:18;-1.70;99.90
18456;DHT22;9357;49.900;8.208;2023-02-28T04:41:52;-1.70;99.90
18456;DHT22;9357;49.900;8.208;2023-02-28T04:43:26;-1.70;99.90
18456;DHT22;9357;49.900;8.208;2023-02-28T04:44:58;-1.70;99.90
18456;DHT22;9357;49.900;8.208;2023-02-28T04:46:31;-1.70;99.90
18456;DHT22;9357;49.900;8.208;2023-02-28T04:48:04;-1.70;99.90
18456;DHT22;9357;49.900;8.208;2023-02-28T04:49:37;-1.70;99.90
18456;DHT22;9357;49.900;8.208;2023-02-28T04:51:12;-1.70;99.90
18456;DHT22;9357;49.900;8.208;2023-02-28T04:52:45;-1.70;99.90
18456;DHT22;9357;49.900;8.208;2023-02-28T04:54:18;-1.70;99.90
18456;DHT22;9357;49.900;8.208;2023-02-28T04:55:51;-1.70;99.90
18456;DHT22;9357;49.900;8.208;2023-02-28T04:57:24;-1.70;99.90
18456;DHT22;9357;49.900;8.208;2023-02-28T04:58:57;-1.70;99.90
18456;DHT22;9357;49.900;8.208;2023-02-28T05:00:29;-1.80;99.90
18456;DHT22;9357;49.900;8.208;2023-02-28T05:02:03;-1.70;99.90
18456;DHT22;9357;49.900;8.208;2023-02-28T05:03:38;-1.70;99.90
18456;DHT22;9357;49.900;8.208;2023-02-28T05:05:12;-1.70;99.90
18456;DHT22;9357;49.900;8.208;2023-02-28T05:06:49;-1.70;99.90
18456;DHT22;9357;49.900;8.208;2023-02-28T05:08:22;-1.80;99.90
18456;DHT22;9357;49.900;8.208;2023-02-28T05:09:54;-1.80;99.90
18456;DHT22;9357;49.900;8.208;2023-02-28T05:11:29;-1.70;99.90
18456;DHT22;9357;49.900;8.208;2023-02-28T05:13:10;-1.70;99.90
18456;DHT22;9357;49.900;8.208;2023-02-28T05:14:43;-1.70;99.90
18456;DHT22;9357;49.900;8.208;2023-02-28T05:16:17;-1.70;99.90
18456;DHT22;9357;49.900;8.208;2023-02-28T05:17:50;-1.70;99.90
18456;DHT22;9357;49.900;8.208;2023-02-28T05:19:23;-1.70;99.90
18456;DHT22;9357;49.900;8.208;2023-02-28T05:20:56;-1.80;99.90
18456;DHT22;9357;49.900;8.208;2023-02-28T05:22:28;-1.80;99.90
18456;DHT22;9357;49.900;8.208;2023-02-28T05:24:03;-1.80;99.90
18456;DHT22;9357;49.900;8.208;2023-02-28T05:25:36;-1.80;99.90
18456;DHT22;9357;49.900;8.208;2023-02-28T05:27:09;-1.80;99.90
18456;DHT22;9357;49.900;8.208;2023-02-28T05:28:43;-1.80;99.90
18456;DHT22;9357;49.900;8.208;2023-02-28T05:30:16;-1.80;99.90
18456;DHT22;9357;49.900;8.208;2023-02-28T05:31:49;-1.80;99.90
18456;DHT22;9357;49.900;8.208;2023-02-28T05:33:22;-1.80;99.90
18456;DHT22;9357;49.900;8.208;2023-02-28T05:34:55;-1.80;99.90
18456;DHT22;9357;49.900;8.208;2023-02-28T05:36:28;-1.80;99.90
18456;DHT22;9357;49.900;8.208;2023-02-28T05:37:59;-1.80;99.90
18456;DHT22;9357;49.900;8.208;2023-02-28T05:39:32;-1.80;99.90
18456;DHT22;9357;49.900;8.208;2023-02-28T05:41:06;-1.80;99.90
18456;DHT22;9357;49.900;8.208;2023-02-28T05:42:39;-1.80;99.90
18456;DHT22;9357;49.900;8.208;2023-02-28T05:44:13;-1.70;99.90
18456;DHT22;9357;49.900;8.208;2023-02-28T05:45:47;-1.80;99.90
18456;DHT22;9357;49.900;8.208;2023-02-28T05:47:20;-1.80;99.90
18456;DHT22;9357;49.900;8.208;2023-02-28T05:48:53;-1.80;99.90
18456;DHT22;9357;49.900;8.208;2023-02-28T05:50:24;-1.80;99.90
18456;DHT22;9357;49.900;8.208;2023-02-28T05:51:57;-1.80;99.90
18456;DHT22;9357;49.900;8.208;2023-02-28T05:53:30;-1.80;99.90
18456;DHT22;9357;49.900;8.208;2023-02-28T05:55:04;-1.80;99.90
18456;DHT22;9357;49.900;8.208;2023-02-28T05:56:37;-1.80;99.90
18456;DHT22;9357;49.900;8.208;2023-02-28T05:58:11;-1.80;99.90
18456;DHT22;9357;49.900;8.208;2023-02-28T05:59:45;-1.80;99.90
18456;DHT22;9357;49.900;8.208;2023-02-28T06:01:24;-1.80;99.90
18456;DHT22;9357;49.900;8.208;2023-02-28T06:02:56;-1.80;99.90
18456;DHT22;9357;49.900;8.208;2023-02-28T06:04:33;-1.80;99.90
18456;DHT22;9357;49.900;8.208;2023-02-28T06:06:06;-1.90;99.90
18456;DHT22;9357;49.900;8.208;2023-02-28T06:07:38;-1.80;99.90
18456;DHT22;9357;49.900;8.208;2023-02-28T06:09:11;-1.80;99.90
18456;DHT22;9357;49.900;8.208;2023-02-28T06:10:44;-1.80;99.90
18456;DHT22;9357;49.900;8.208;2023-02-28T06:12:17;-1.80;99.90
18456;DHT22;9357;49.900;8.208;2023-02-28T06:13:53;-1.80;99.90
18456;DHT22;9357;49.900;8.208;2023-02-28T06:15:28;-1.90;99.90
18456;DHT22;9357;49.900;8.208;2023-02-28T06:17:01;-1.80;99.90
18456;DHT22;9357;49.900;8.208;2023-02-28T06:18:34;-1.80;99.90
18456;DHT22;9357;49.900;8.208;2023-02-28T06:20:08;-1.80;99.90
18456;DHT22;9357;49.900;8.208;2023-02-28T06:21:41;-1.90;99.90
18456;DHT22;9357;49.900;8.208;2023-02-28T06:23:14;-1.90;99.90
18456;DHT22;9357;49.900;8.208;2023-02-28T06:24:47;-1.90;99.90
18456;DHT22;9357;49.900;8.208;2023-02-28T06:26:20;-1.80;99.90
18456;DHT22;9357;49.900;8.208;2023-02-28T06:27:53;-1.80;99.90
18456;DHT22;9357;49.900;8.208;2023-02-28T06:29:26;-1.80;99.90
18456;DHT22;9357;49.900;8.208;2023-02-28T06:31:06;-1.80;99.90
18456;DHT22;9357;49.900;8.208;2023-02-28T06:32:39;-1.80;99.90
18456;DHT22;9357;49.900;8.208;2023-02-28T06:34:13;-1.80;99.90
18456;DHT22;9357;49.900;8.208;2023-02-28T06:35:47;-1.90;99.90
18456;DHT22;9357;49.900;8.208;2023-02-28T06:37:20;-1.80;99.90
18456;DHT22;9357;49.900;8.208;2023-02-28T06:38:52;-1.80;99.90
18456;DHT22;9357;49.900;8.208;2023-02-28T06:40:27;-1.80;99.90
18456;DHT22;9357;49.900;8.208;2023-02-28T06:41:59;-1.80;99.90
18456;DHT22;9357;49.900;8.208;2023-02-28T06:43:35;-1.80;99.90
18456;DHT22;9357;49.900;8.208;2023-02-28T06:45:09;-1.80;99.90
18456;DHT22;9357;49.900;8.208;2023-02-28T06:46:44;-1.80;99.90
18456;DHT22;9357;49.900;8.208;2023-02-28T06:48:17;-1.70;99.90
18456;DHT22;9357;49.900;8.208;2023-02-28T06:49:50;-1.70;99.90
18456;DHT22;9357;49.900;8.208;2023-02-28T06:51:23;-1.60;99.90
18456;DHT22;9357;49.900;8.208;2023-02-28T06:52:56;-1.60;99.90
18456;DHT22;9357;49.900;8.208;2023-02-28T06:54:29;-1.60;99.90
18456;DHT22;9357;49.900;8.208;2023-02-28T06:56:04;-1.60;99.90
18456;DHT22;9357;49.900;8.208;2023-02-28T06:57:38;-1.60;99.90
18456;DHT22;9357;49.900;8.208;2023-02-28T06:59:10;-1.60;99.90
18456;DHT22;9357;49.900;8.208;2023-02-28T07:00:44;-1.60;99.90
18456;DHT22;9357;49.900;8.208;2023-02-28T07:02:19;-1.50;99.90
18456;DHT22;9357;49.900;8.208;2023-02-28T07:03:51;-1.50;99.90
18456;DHT22;9357;49.900;8.208;2023-02-28T07:05:24;-1.50;99.90
18456;DHT22;9357;49.900;8.208;2023-02-28T07:06:57;-1.50;99.90
18456;DHT22;9357;49.900;8.208;2023-02-28T07:08:30;-1.40;99.90
18456;DHT22;9357;49.900;8.208;2023-02-28T07:10:03;-1.40;99.90
18456;DHT22;9357;49.900;8.208;2023-02-28T07:11:36;-1.30;99.90
18456;DHT22;9357;49.900;8.208;2023-02-28T07:13:09;-1.30;99.90
18456;DHT22;9357;49.900;8.208;2023-02-28T07:14:42;-1.30;99.90
18456;DHT22;9357;49.900;8.208;2023-02-28T07:16:15;-1.30;99.90
18456;DHT22;9357;49.900;8.208;2023-02-28T07:17:49;-1.20;99.90
18456;DHT22;9357;49.900;8.208;2023-02-28T07:19:21;-1.20;99.90
18456;DHT22;9357;49.900;8.208;2023-02-28T07:20:55;-1.30;99.90
18456;DHT22;9357;49.900;8.208;2023-02-28T07:22:28;-1.20;99.90
18456;DHT22;9357;49.900;8.208;2023-02-28T07:24:01;-1.20;99.90
18456;DHT22;9357;49.900;8.208;2023-02-28T07:25:33;-1.20;99.90
18456;DHT22;9357;49.900;8.208;2023-02-28T07:27:06;-1.10;99.90
18456;DHT22;9357;49.900;8.208;2023-02-28T07:28:39;-1.10;99.90
18456;DHT22;9357;49.900;8.208;2023-02-28T07:30:12;-1.10;99.90
18456;DHT22;9357;49.900;8.208;2023-02-28T07:31:45;-1.00;99.90
18456;DHT22;9357;49.900;8.208;2023-02-28T07:33:20;-0.80;99.90
18456;DHT22;9357;49.900;8.208;2023-02-28T07:34:52;-0.60;99.90
18456;DHT22;9357;49.900;8.208;2023-02-28T07:36:26;-0.40;99.90
18456;DHT22;9357;49.900;8.208;2023-02-28T07:37:59;-0.10;99.90
18456;DHT22;9357;49.900;8.208;2023-02-28T07:39:32;0.10;99.90
18456;DHT22;9357;49.900;8.208;2023-02-28T07:41:05;0.30;99.90
18456;DHT22;9357;49.900;8.208;2023-02-28T07:42:38;0.50;99.90
18456;DHT22;9357;49.900;8.208;2023-02-28T07:44:11;0.70;99.90
18456;DHT22;9357;49.900;8.208;2023-02-28T07:45:45;0.90;99.90
18456;DHT22;9357;49.900;8.208;2023-02-28T07:47:18;1.00;99.90
18456;DHT22;9357;49.900;8.208;2023-02-28T07:48:52;1.30;99.90
18456;DHT22;9357;49.900;8.208;2023-02-28T07:50:26;1.40;99.90
18456;DHT22;9357;49.900;8.208;2023-02-28T07:52:02;1.60;99.90
18456;DHT22;9357;49.900;8.208;2023-02-28T07:53:35;1.70;99.90
18456;DHT22;9357;49.900;8.208;2023-02-28T07:55:09;1.90;99.90
18456;DHT22;9357;49.900;8.208;2023-02-28T07:56:42;2.00;99.90
18456;DHT22;9357;49.900;8.208;2023-02-28T07:58:14;2.00;99.90
18456;DHT22;9357;49.900;8.208;2023-02-28T07:59:47;2.10;99.90
18456;DHT22;9357;49.900;8.208;2023-02-28T08:01:20;2.00;99.90
18456;DHT22;9357;49.900;8.208;2023-02-28T08:02:53;2.00;99.90
18456;DHT22;9357;49.900;8.208;2023-02-28T08:04:27;1.80;99.90
18456;DHT22;9357;49.900;8.208;2023-02-28T08:06:00;1.70;99.90
18456;DHT22;9357;49.900;8.208;2023-02-28T08:07:33;1.60;99.90
18456;DHT22;9357;49.900;8.208;2023-02-28T08:09:06;1.50;99.90
18456;DHT22;9357;49.900;8.208;2023-02-28T08:10:39;1.40;99.90
18456;DHT22;9357;49.900;8.208;2023-02-28T08:12:12;1.40;99.90
18456;DHT22;9357;49.900;8.208;2023-02-28T08:13:45;1.40;99.90
18456;DHT22;9357;49.900;8.208;2023-02-28T08:15:18;1.30;99.90
18456;DHT22;9357;49.900;8.208;2023-02-28T08:16:50;1.40;99.90
18456;DHT22;9357;49.900;8.208;2023-02-28T08:18:23;1.30;99.90
18456;DHT22;9357;49.900;8.208;2023-02-28T08:19:57;1.30;99.90
18456;DHT22;9357;49.900;8.208;2023-02-28T08:21:30;1.20;99.90
18456;DHT22;9357;49.900;8.208;2023-02-28T08:23:04;1.20;99.90
18456;DHT22;9357;49.900;8.208;2023-02-28T08:24:37;1.20;99.90
18456;DHT22;9357;49.900;8.208;2023-02-28T08:26:10;1.20;99.90
18456;DHT22;9357;49.900;8.208;2023-02-28T08:27:42;1.20;99.90
18456;DHT22;9357;49.900;8.208;2023-02-28T08:29:15;1.20;99.90
18456;DHT22;9357;49.900;8.208;2023-02-28T08:30:48;1.20;99.90
18456;DHT22;9357;49.900;8.208;2023-02-28T08:32:21;1.20;99.90
18456;DHT22;9357;49.900;8.208;2023-02-28T08:34:05;1.20;99.90
18456;DHT22;9357;49.900;8.208;2023-02-28T08:35:39;1.20;99.90
18456;DHT22;9357;49.900;8.208;2023-02-28T08:37:12;1.20;99.90
18456;DHT22;9357;49.900;8.208;2023-02-28T08:38:44;1.30;99.90
18456;DHT22;9357;49.900;8.208;2023-02-28T08:40:18;1.40;99.90
18456;DHT22;9357;49.900;8.208;2023-02-28T08:41:51;1.40;99.90
18456;DHT22;9357;49.900;8.208;2023-02-28T08:43:38;1.50;99.90
18456;DHT22;9357;49.900;8.208;2023-02-28T08:45:11;1.50;99.90
18456;DHT22;9357;49.900;8.208;2023-02-28T08:46:43;1.60;99.90
18456;DHT22;9357;49.900;8.208;2023-02-28T08:48:16;1.60;99.90
18456;DHT22;9357;49.900;8.208;2023-02-28T08:49:50;1.70;99.90
18456;DHT22;9357;49.900;8.208;2023-02-28T08:51:24;1.70;99.90
18456;DHT22;9357;49.900;8.208;2023-02-28T08:52:59;1.80;99.90
18456;DHT22;9357;49.900;8.208;2023-02-28T08:54:32;1.80;99.90
18456;DHT22;9357;49.900;8.208;2023-02-28T08:56:07;1.90;99.90
18456;DHT22;9357;49.900;8.208;2023-02-28T08:57:40;1.90;99.90
18456;DHT22;9357;49.900;8.208;2023-02-28T08:59:13;1.90;99.90
18456;DHT22;9357;49.900;8.208;2023-02-28T09:00:45;2.00;99.90
18456;DHT22;9357;49.900;8.208;2023-02-28T09:02:18;2.00;99.90
18456;DHT22;9357;49.900;8.208;2023-02-28T09:03:51;2.30;99.90
18456;DHT22;9357;49.900;8.208;2023-02-28T09:05:24;2.60;99.90
18456;DHT22;9357;49.900;8.208;2023-02-28T09:06:58;2.80;99.90
18456;DHT22;9357;49.900;8.208;2023-02-28T09:08:31;3.10;99.90
18456;DHT22;9357;49.900;8.208;2023-02-28T09:10:04;3.40;99.90
18456;DHT22;9357;49.900;8.208;2023-02-28T09:11:37;3.70;99.90
18456;DHT22;9357;49.900;8.208;2023-02-28T09:13:10;3.90;99.90
18456;DHT22;9357;49.900;8.208;2023-02-28T09:14:43;4.00;99.90
18456;DHT22;9357;49.900;8.208;2023-02-28T09:16:16;4.10;99.90
18456;DHT22;9357;49.900;8.208;2023-02-28T09:17:49;4.30;99.90
18456;DHT22;9357;49.900;8.208;2023-02-28T09:19:22;4.40;99.90
18456;DHT22;9357;49.900;8.208;2023-02-28T09:20:55;4.50;99.90
18456;DHT22;9357;49.900;8.208;2023-02-28T09:22:30;4.60;99.90
18456;DHT22;9357;49.900;8.208;2023-02-28T09:24:04;4.60;99.90
18456;DHT22;9357;49.900;8.208;2023-02-28T09:25:38;4.70;99.90
18456;DHT22;9357;49.900;8.208;2023-02-28T09:27:11;4.80;99.90
18456;DHT22;9357;49.900;8.208;2023-02-28T09:28:44;5.00;99.90
18456;DHT22;9357;49.900;8.208;2023-02-28T09:30:17;5.10;99.90
18456;DHT22;9357;49.900;8.208;2023-02-28T09:31:50;5.30;99.90
18456;DHT22;9357;49.900;8.208;2023-02-28T09:33:22;5.40;99.90
18456;DHT22;9357;49.900;8.208;2023-02-28T09:34:55;5.40;99.90
18456;DHT22;9357;49.900;8.208;2023-02-28T09:36:28;5.40;99.90
18456;DHT22;9357;49.900;8.208;2023-02-28T09:38:16;5.50;99.90
18456;DHT22;9357;49.900;8.208;2023-02-28T09:39:49;5.60;99.90
18456;DHT22;9357;49.900;8.208;2023-02-28T09:41:23;5.70;99.90
18456;DHT22;9357;49.900;8.208;2023-02-28T09:42:59;5.80;99.90
18456;DHT22;9357;49.900;8.208;2023-02-28T09:44:36;5.90;99.90
18456;DHT22;9357;49.900;8.208;2023-02-28T09:46:18;6.00;99.90
18456;DHT22;9357;49.900;8.208;2023-02-28T09:47:55;6.10;99.90
18456;DHT22;9357;49.900;8.208;2023-02-28T09:49:34;6.10;99.90
18456;DHT22;9357;49.900;8.208;2023-02-28T09:51:21;6.00;99.90
18456;DHT22;9357;49.900;8.208;2023-02-28T09:52:56;6.00;99.90
18456;DHT22;9357;49.900;8.208;2023-02-28T09:54:32;6.00;99.90
18456;DHT22;9357;49.900;8.208;2023-02-28T09:56:08;6.10;99.90
18456;DHT22;9357;49.900;8.208;2023-02-28T09:57:42;6.10;99.90
18456;DHT22;9357;49.900;8.208;2023-02-28T09:59:28;6.10;99.90
18456;DHT22;9357;49.900;8.208;2023-02-28T10:01:06;6.30;99.90
18456;DHT22;9357;49.900;8.208;2023-02-28T10:02:58;6.50;99.90
18456;DHT22;9357;49.900;8.208;2023-02-28T10:04:42;6.60;99.90
18456;DHT22;9357;49.900;8.208;2023-02-28T10:06:19;6.50;99.90
18456;DHT22;9357;49.900;8.208;2023-02-28T10:08:02;6.40;99.90
18456;DHT22;9357;49.900;8.208;2023-02-28T10:09:37;6.40;99.90
18456;DHT22;9357;49.900;8.208;2023-02-28T10:11:14;6.50;99.90
18456;DHT22;9357;49.900;8.208;2023-02-28T10:12:52;6.50;99.90
18456;DHT22;9357;49.900;8.208;2023-02-28T10:14:28;6.60;99.90
18456;DHT22;9357;49.900;8.208;2023-02-28T10:16:05;6.60;99.90
18456;DHT22;9357;49.900;8.208;2023-02-28T10:17:43;6.70;99.90
18456;DHT22;9357;49.900;8.208;2023-02-28T10:19:35;6.90;99.90
18456;DHT22;9357;49.900;8.208;2023-02-28T10:21:19;6.80;99.90